createdAt,value
2022-10-29T00:00:39.981Z,28.45
2022-10-29T00:03:07.049Z,33.10
2022-10-29T00:05:34.468Z,33.35
2022-10-29T00:08:01.485Z,29.50
2022-10-29T00:10:28.959Z,28.98
2022-10-29T00:12:55.691Z,32.70
2022-10-29T00:15:22.289Z,32.58
2022-10-29T00:17:48.792Z,32.05
2022-10-29T00:20:15.454Z,27.15
2022-10-29T00:22:41.951Z,30.13
2022-10-29T00:25:08.761Z,26.17
2022-10-29T00:27:35.314Z,30.60
2022-10-29T00:30:01.828Z,30.27
2022-10-29T00:32:28.329Z,26.77
2022-10-29T00:34:54.875Z,24.50
2022-10-29T00:37:21.418Z,25.92
2022-10-29T00:39:47.911Z,29.70
2022-10-29T00:42:16.298Z,29.52
2022-10-29T00:44:43.173Z,24.45
2022-10-29T00:47:15.498Z,24.95
2022-10-29T00:49:43.077Z,27.42
2022-10-29T00:52:10.645Z,28.95
2022-10-29T00:54:42.682Z,27.27
2022-10-29T00:57:29.882Z,27.33
2022-10-29T00:59:56.643Z,27.25
2022-10-29T01:02:23.679Z,28.25
2022-10-29T01:04:53.131Z,25.13
2022-10-29T01:07:22.298Z,30.80
2022-10-29T01:09:50.058Z,28.00
2022-10-29T01:12:42.036Z,27.95
2022-10-29T01:15:08.562Z,29.70
2022-10-29T01:17:58.117Z,26.35
2022-10-29T01:20:52.518Z,24.75
2022-10-29T01:23:39.925Z,25.08
2022-10-29T01:26:22.145Z,27.05
2022-10-29T01:29:16.207Z,26.55
2022-10-29T01:32:05.106Z,25.35
2022-10-29T01:34:43.328Z,27.60
2022-10-29T01:37:21.222Z,27.45
2022-10-29T01:40:23.818Z,31.05
2022-10-29T01:43:05.104Z,28.67
2022-10-29T01:45:43.089Z,29.90
2022-10-29T01:48:13.893Z,27.75
2022-10-29T01:50:44.519Z,31.15
2022-10-29T01:53:11.627Z,28.27
2022-10-29T01:55:38.315Z,29.98
2022-10-29T01:58:06.667Z,27.73
2022-10-29T02:01:11.104Z,27.10
2022-10-29T02:03:50.181Z,30.23
2022-10-29T02:06:31.523Z,28.95
2022-10-29T02:09:10.363Z,31.95
2022-10-29T02:11:39.507Z,31.00
2022-10-29T02:14:12.784Z,28.98
2022-10-29T02:16:40.389Z,28.05
2022-10-29T02:19:06.959Z,23.90
2022-10-29T02:21:33.499Z,28.83
2022-10-29T02:24:00.050Z,27.10
2022-10-29T02:26:26.594Z,27.40
2022-10-29T02:28:53.163Z,31.95
2022-10-29T02:31:19.721Z,31.65
2022-10-29T02:33:46.225Z,29.67
2022-10-29T02:36:12.797Z,34.15
2022-10-29T02:38:39.371Z,31.02
2022-10-29T02:41:05.899Z,30.25
2022-10-29T02:43:32.415Z,31.10
2022-10-29T02:46:18.546Z,33.05
2022-10-29T02:48:45.604Z,29.20
2022-10-29T02:51:12.916Z,32.65
2022-10-29T02:53:41.954Z,32.38
2022-10-29T02:56:08.680Z,31.40
2022-10-29T02:58:35.690Z,29.77
2022-10-29T03:01:02.358Z,30.00
2022-10-29T03:03:29.028Z,30.73
2022-10-29T03:05:55.570Z,26.77
2022-10-29T03:08:22.350Z,25.63
2022-10-29T03:10:48.885Z,28.67
2022-10-29T03:13:15.583Z,26.45
2022-10-29T03:15:45.432Z,23.10
2022-10-29T03:18:12.450Z,25.38
2022-10-29T03:20:39.034Z,27.80
2022-10-29T03:23:05.675Z,29.38
2022-10-29T03:25:32.291Z,31.85
2022-10-29T03:27:59.049Z,28.42
2022-10-29T03:30:25.698Z,28.58
2022-10-29T03:32:52.944Z,32.67
2022-10-29T03:35:19.532Z,26.02
2022-10-29T03:37:49.767Z,25.63
2022-10-29T03:40:17.276Z,31.48
2022-10-29T03:42:43.861Z,34.90
2022-10-29T03:45:11.046Z,28.52
2022-10-29T03:47:37.946Z,26.48
2022-10-29T03:50:04.753Z,28.27
2022-10-29T03:52:31.294Z,27.33
2022-10-29T03:54:57.887Z,26.88
2022-10-29T03:57:24.396Z,34.28
2022-10-29T03:59:52.593Z,30.25
2022-10-29T04:02:19.678Z,25.73
2022-10-29T04:04:46.377Z,30.60
2022-10-29T04:07:13.026Z,27.13
2022-10-29T04:09:39.587Z,32.33
2022-10-29T04:12:06.630Z,32.63
2022-10-29T04:14:33.237Z,33.53
2022-10-29T04:17:00.028Z,28.33
2022-10-29T04:19:26.600Z,28.05
2022-10-29T04:32:45.823Z,29.27
2022-10-29T04:35:12.330Z,25.42
2022-10-29T04:37:38.874Z,34.10
2022-10-29T04:40:05.907Z,31.25
2022-10-29T04:42:39.533Z,28.67
2022-10-29T04:45:06.861Z,30.15
2022-10-29T04:47:33.688Z,27.35
2022-10-29T04:50:00.254Z,30.58
2022-10-29T04:52:27.012Z,29.92
2022-10-29T04:54:53.526Z,34.78
2022-10-29T04:57:20.101Z,29.77
2022-10-29T04:59:46.617Z,27.30
2022-10-29T05:02:13.135Z,26.77
2022-10-29T05:04:39.646Z,25.02
2022-10-29T05:07:06.160Z,28.25
2022-10-29T05:09:32.663Z,30.08
2022-10-29T05:11:59.187Z,29.30
2022-10-29T05:14:25.682Z,27.50
2022-10-29T05:16:52.266Z,25.92
2022-10-29T05:19:18.889Z,26.38
2022-10-29T05:21:45.394Z,28.20
2022-10-29T05:24:11.888Z,29.35
2022-10-29T05:26:38.442Z,30.90
2022-10-29T05:29:04.991Z,31.38
2022-10-29T05:31:31.483Z,29.80
2022-10-29T05:33:58.031Z,30.60
2022-10-29T05:36:24.567Z,29.70
2022-10-29T05:38:51.118Z,27.42
2022-10-29T05:41:17.651Z,28.23
2022-10-29T05:43:44.158Z,24.00
2022-10-29T05:46:10.659Z,33.53
2022-10-29T05:48:37.255Z,28.25
2022-10-29T05:51:04.506Z,26.65
2022-10-29T05:53:31.013Z,25.95
2022-10-29T05:55:58.829Z,26.90
2022-10-29T05:58:25.431Z,22.85
2022-10-29T06:00:51.942Z,26.08
2022-10-29T06:03:22.010Z,24.05
2022-10-29T06:05:49.631Z,23.92
2022-10-29T06:08:17.118Z,27.80
2022-10-29T06:10:43.700Z,23.83
2022-10-29T06:13:17.929Z,22.08
2022-10-29T06:15:45.438Z,26.55
2022-10-29T06:18:12.458Z,30.77
2022-10-29T06:20:39.833Z,25.55
2022-10-29T06:23:06.671Z,23.08
2022-10-29T06:25:33.552Z,24.95
2022-10-29T06:28:02.235Z,26.83
2022-10-29T06:30:30.508Z,23.13
2022-10-29T06:32:57.358Z,23.83
2022-10-29T06:35:24.286Z,23.40
2022-10-29T06:37:50.926Z,26.52
2022-10-29T06:40:17.694Z,28.77
2022-10-29T06:42:44.682Z,23.23
2022-10-29T06:45:11.872Z,24.42
2022-10-29T06:47:42.733Z,23.17
2022-10-29T06:50:10.635Z,24.35
2022-10-29T06:52:37.676Z,27.30
2022-10-29T06:55:05.583Z,20.73
2022-10-29T06:57:32.395Z,24.60
2022-10-29T07:00:02.407Z,23.08
2022-10-29T07:02:32.286Z,19.48
2022-10-29T07:04:58.875Z,25.00
2022-10-29T07:07:28.366Z,24.65
2022-10-29T07:09:54.913Z,22.67
2022-10-29T07:12:21.437Z,25.65
2022-10-29T07:14:47.950Z,22.63
2022-10-29T07:17:14.464Z,20.63
2022-10-29T07:19:40.949Z,23.35
2022-10-29T07:22:07.497Z,23.83
2022-10-29T07:24:34.044Z,22.60
2022-10-29T07:27:01.886Z,22.23
2022-10-29T07:29:28.726Z,20.80
2022-10-29T07:31:55.268Z,26.20
2022-10-29T07:34:21.773Z,24.40
2022-10-29T07:36:48.288Z,20.92
2022-10-29T07:39:14.851Z,17.67
2022-10-29T07:41:41.358Z,19.42
2022-10-29T07:44:10.131Z,20.65
2022-10-29T07:46:36.660Z,25.02
2022-10-29T07:49:03.377Z,18.40
2022-10-29T07:51:29.963Z,16.00
2022-10-29T07:53:56.477Z,18.25
2022-10-29T07:56:22.990Z,18.35
2022-10-29T07:58:49.544Z,17.20
2022-10-29T08:01:16.178Z,18.70
2022-10-29T08:03:43.170Z,15.88
2022-10-29T08:06:09.709Z,18.00
2022-10-29T08:08:36.411Z,19.45
2022-10-29T08:11:04.656Z,15.63
2022-10-29T08:13:31.408Z,16.08
2022-10-29T08:15:57.932Z,13.27
2022-10-29T08:18:24.581Z,16.50
2022-10-29T08:20:51.268Z,18.27
2022-10-29T08:23:17.853Z,16.25
2022-10-29T08:25:44.839Z,17.88
2022-10-29T08:28:14.140Z,15.40
2022-10-29T08:30:41.967Z,14.48
2022-10-29T08:33:10.985Z,14.70
2022-10-29T08:35:37.659Z,14.95
2022-10-29T08:38:04.183Z,14.13
2022-10-29T08:40:49.479Z,11.07
2022-10-29T08:43:44.579Z,13.48
2022-10-29T08:46:20.181Z,15.82
2022-10-29T08:48:53.467Z,13.48
2022-10-29T08:51:24.826Z,15.45
2022-10-29T08:54:17.323Z,12.80
2022-10-29T08:56:48.879Z,11.73
2022-10-29T08:59:18.619Z,13.57
2022-10-29T09:01:45.527Z,14.48
2022-10-29T09:04:18.129Z,11.05
2022-10-29T09:07:02.858Z,12.45
2022-10-29T09:09:39.939Z,15.50
2022-10-29T09:12:44.063Z,13.65
2022-10-29T09:15:13.689Z,12.38
2022-10-29T09:18:02.359Z,12.50
2022-10-29T09:20:50.172Z,17.80
2022-10-29T09:23:53.721Z,23.08
2022-10-29T09:26:40.447Z,15.77
2022-10-29T09:29:27.862Z,18.00
2022-10-29T09:32:01.688Z,13.73
2022-10-29T09:34:40.204Z,12.25
2022-10-29T09:37:20.112Z,13.93
2022-10-29T09:39:47.938Z,9.63
2022-10-29T09:42:41.986Z,10.77
2022-10-29T09:45:16.121Z,12.85
2022-10-29T09:48:09.924Z,10.80
2022-10-29T09:50:56.755Z,10.32
2022-10-29T09:53:23.625Z,9.93
2022-10-29T09:55:54.005Z,12.25
2022-10-29T09:58:23.458Z,11.02
2022-10-29T10:00:50.936Z,11.32
2022-10-29T10:03:33.927Z,9.98
2022-10-29T10:06:03.567Z,10.30
2022-10-29T10:08:31.214Z,10.60
2022-10-29T10:11:04.915Z,10.43
2022-10-29T10:13:37.460Z,9.73
2022-10-29T10:16:06.710Z,9.68
2022-10-29T10:18:33.473Z,10.18
2022-10-29T10:21:06.583Z,11.05
2022-10-29T10:23:53.085Z,7.72
2022-10-29T10:26:42.962Z,13.05
2022-10-29T10:29:21.469Z,10.82
2022-10-29T10:31:50.990Z,9.23
2022-10-29T10:34:20.417Z,12.10
2022-10-29T10:39:44.104Z,12.55
2022-10-29T10:42:25.590Z,11.75
2022-10-29T10:44:57.939Z,9.30
2022-10-29T10:47:28.502Z,12.25
2022-10-29T10:50:11.369Z,10.43
2022-10-29T10:52:37.978Z,11.95
2022-10-29T10:55:15.061Z,11.90
2022-10-29T10:57:50.190Z,9.80
2022-10-29T11:00:19.993Z,9.23
2022-10-29T11:03:14.213Z,10.25
2022-10-29T11:05:47.642Z,11.10
2022-10-29T11:08:19.682Z,10.82
2022-10-29T11:10:52.179Z,10.75
2022-10-29T11:13:29.532Z,12.73
2022-10-29T11:16:02.114Z,11.48
2022-10-29T11:18:37.962Z,13.48
2022-10-29T11:21:26.403Z,9.80
2022-10-29T11:24:02.116Z,11.60
2022-10-29T11:26:40.971Z,14.38
2022-10-29T11:29:25.877Z,12.32
2022-10-29T11:32:14.080Z,10.55
2022-10-29T11:34:56.935Z,10.85
2022-10-29T11:37:28.436Z,13.50
2022-10-29T11:40:29.835Z,10.65
2022-10-29T11:42:56.480Z,11.40
2022-10-29T11:45:33.389Z,13.02
2022-10-29T11:48:21.921Z,10.40
2022-10-29T11:51:07.384Z,12.07
2022-10-29T11:56:06.713Z,8.95
2022-10-29T11:59:16.767Z,12.98
2022-10-29T12:01:57.576Z,13.60
2022-10-29T12:04:33.161Z,13.00
2022-10-29T12:07:30.768Z,48.58
2022-10-29T12:10:25.241Z,10.52
2022-10-29T12:13:19.556Z,12.32
2022-10-29T12:16:33.277Z,10.00
2022-10-29T12:19:25.836Z,14.27
2022-10-29T12:21:59.831Z,9.80
2022-10-29T12:25:03.216Z,12.52
2022-10-29T12:27:36.287Z,9.88
2022-10-29T12:30:06.118Z,9.05
2022-10-29T12:32:59.729Z,12.00
2022-10-29T12:35:59.937Z,12.77
2022-10-29T12:38:37.515Z,11.32
2022-10-29T12:41:10.148Z,14.75
2022-10-29T12:43:39.999Z,11.48
2022-10-29T12:46:32.758Z,10.75
2022-10-29T12:49:20.596Z,11.32
2022-10-29T12:51:58.454Z,13.90
2022-10-29T12:54:41.187Z,12.75
2022-10-29T12:57:13.502Z,16.05
2022-10-29T12:59:41.964Z,13.32
2022-10-29T13:02:27.336Z,11.32
2022-10-29T13:05:05.948Z,12.70
2022-10-29T13:07:33.626Z,14.63
2022-10-29T13:10:22.012Z,16.65
2022-10-29T13:13:19.929Z,17.83
2022-10-29T13:16:02.353Z,13.75
2022-10-29T13:18:35.481Z,11.85
2022-10-29T13:21:04.278Z,13.15
2022-10-29T13:23:31.819Z,13.45
2022-10-29T13:25:59.681Z,11.07
2022-10-29T13:28:26.127Z,12.90
2022-10-29T13:31:32.896Z,17.20
2022-10-29T13:33:59.425Z,15.20
2022-10-29T13:36:25.919Z,16.98
2022-10-29T13:39:06.061Z,14.45
2022-10-29T13:41:43.738Z,12.75
2022-10-29T13:44:16.443Z,13.75
2022-10-29T13:46:55.291Z,17.00
2022-10-29T13:49:36.735Z,15.43
2022-10-29T13:52:08.601Z,15.30
2022-10-29T13:54:43.784Z,16.58
2022-10-29T13:57:19.439Z,15.35
2022-10-29T14:00:11.319Z,14.50
2022-10-29T14:02:43.963Z,14.98
2022-10-29T14:05:39.079Z,15.43
2022-10-29T14:08:25.264Z,13.15
2022-10-29T14:10:59.489Z,15.50
2022-10-29T14:13:34.357Z,16.40
2022-10-29T14:18:41.726Z,14.00
2022-10-29T14:23:53.952Z,15.10
2022-10-29T14:28:52.962Z,14.48
2022-10-29T14:31:24.799Z,13.20
2022-10-29T14:33:56.981Z,25.75
2022-10-29T14:36:35.471Z,23.83
2022-10-29T14:39:08.124Z,17.33
2022-10-29T14:41:39.249Z,16.88
2022-10-29T14:44:18.952Z,14.73
2022-10-29T14:47:18.109Z,15.55
2022-10-29T14:49:48.759Z,14.02
2022-10-29T14:52:37.886Z,16.33
2022-10-29T14:55:45.247Z,13.35
2022-10-29T14:58:11.832Z,13.85
2022-10-29T15:00:40.617Z,15.00
2022-10-29T15:03:08.035Z,16.00
2022-10-29T15:05:37.052Z,16.02
2022-10-29T15:08:09.696Z,14.48
2022-10-29T15:10:51.050Z,15.07
2022-10-29T15:13:29.838Z,15.93
2022-10-29T15:16:03.449Z,17.38
2022-10-29T15:18:32.108Z,16.45
2022-10-29T15:20:59.056Z,16.00
2022-10-29T15:23:35.643Z,17.00
2022-10-29T15:26:05.550Z,14.02
2022-10-29T15:28:39.142Z,15.38
2022-10-29T15:31:06.619Z,15.63
2022-10-29T15:33:36.925Z,17.52
2022-10-29T15:36:05.368Z,17.15
2022-10-29T15:38:34.291Z,18.45
2022-10-29T15:41:18.977Z,20.45
2022-10-29T15:43:50.656Z,16.27
2022-10-29T15:46:28.792Z,18.90
2022-10-29T15:48:55.687Z,17.58
2022-10-29T15:51:27.136Z,17.85
2022-10-29T15:53:56.524Z,19.65
2022-10-29T15:56:24.300Z,19.35
2022-10-29T15:58:52.480Z,18.35
2022-10-29T16:01:19.261Z,18.15
2022-10-29T16:03:45.990Z,19.98
2022-10-29T16:06:15.205Z,18.50
2022-10-29T16:08:43.321Z,18.95
2022-10-29T16:11:14.931Z,18.38
2022-10-29T16:13:41.528Z,18.38
2022-10-29T16:16:17.408Z,17.08
2022-10-29T16:18:44.948Z,19.92
2022-10-29T16:21:15.193Z,21.17
2022-10-29T16:23:41.765Z,20.35
2022-10-29T16:26:15.291Z,19.25
2022-10-29T16:28:44.252Z,19.73
2022-10-29T16:31:24.887Z,21.45
2022-10-29T16:33:53.658Z,22.02
2022-10-29T16:36:20.515Z,22.40
2022-10-29T16:38:47.124Z,24.98
2022-10-29T16:41:15.608Z,21.42
2022-10-29T16:43:43.127Z,23.65
2022-10-29T16:46:09.966Z,23.08
2022-10-29T16:48:36.898Z,24.48
2022-10-29T16:51:03.830Z,21.27
2022-10-29T16:53:30.416Z,25.13
2022-10-29T16:55:57.037Z,23.20
2022-10-29T16:58:23.669Z,21.15
2022-10-29T17:00:50.368Z,25.15
2022-10-29T17:03:18.194Z,22.45
2022-10-29T17:05:46.194Z,31.80
2022-10-29T17:08:13.031Z,26.15
2022-10-29T17:10:39.964Z,24.77
2022-10-29T17:13:11.837Z,24.58
2022-10-29T17:15:41.413Z,24.17
2022-10-29T17:18:08.264Z,24.08
2022-10-29T17:20:34.853Z,22.63
2022-10-29T17:23:01.368Z,26.45
2022-10-29T17:25:27.905Z,19.33
2022-10-29T17:27:54.775Z,23.65
2022-10-29T17:30:21.533Z,20.45
2022-10-29T17:32:48.059Z,19.08
2022-10-29T17:35:14.623Z,20.38
2022-10-29T17:37:41.163Z,18.80
2022-10-29T17:40:08.427Z,19.35
2022-10-29T17:42:35.619Z,22.02
2022-10-29T17:45:02.243Z,21.92
2022-10-29T17:47:29.811Z,53.25
2022-10-29T17:49:56.393Z,43.28
2022-10-29T17:52:22.989Z,25.77
2022-10-29T17:54:49.594Z,22.40
2022-10-29T17:57:16.098Z,18.35
2022-10-29T17:59:42.661Z,20.05
2022-10-29T18:02:11.063Z,21.98
2022-10-29T18:04:37.839Z,18.15
2022-10-29T18:07:04.365Z,21.23
2022-10-29T18:09:30.990Z,23.65
2022-10-29T18:11:57.551Z,21.00
2022-10-29T18:14:24.182Z,22.40
2022-10-29T18:16:50.804Z,23.67
2022-10-29T18:19:17.386Z,20.45
2022-10-29T18:21:44.014Z,23.67
2022-10-29T18:24:10.827Z,21.38
2022-10-29T18:26:37.486Z,22.05
2022-10-29T18:29:10.310Z,22.42
2022-10-29T18:31:37.904Z,18.90
2022-10-29T18:34:07.643Z,28.83
2022-10-29T18:36:35.862Z,22.42
2022-10-29T18:39:04.196Z,21.77
2022-10-29T18:41:31.046Z,25.65
2022-10-29T18:43:58.882Z,24.77
2022-10-29T18:46:25.844Z,19.02
2022-10-29T18:48:52.873Z,19.02
2022-10-29T18:51:25.333Z,20.00
2022-10-29T18:53:53.526Z,20.15
2022-10-29T18:56:21.679Z,19.25
2022-10-29T18:58:48.366Z,19.33
2022-10-29T19:01:17.403Z,20.90
2022-10-29T19:03:44.466Z,21.17
2022-10-29T19:06:13.192Z,20.77
2022-10-29T19:08:42.389Z,21.25
2022-10-29T19:11:11.871Z,21.02
2022-10-29T19:13:38.424Z,20.50
2022-10-29T19:16:13.051Z,19.30
2022-10-29T19:18:40.836Z,20.83
2022-10-29T19:21:09.782Z,22.58
2022-10-29T19:23:36.804Z,23.17
2022-10-29T19:26:17.153Z,24.85
2022-10-29T19:28:45.730Z,23.88
2022-10-29T19:31:15.781Z,21.90
2022-10-29T19:33:42.962Z,22.73
2022-10-29T19:36:09.968Z,20.75
2022-10-29T19:38:36.546Z,24.88
2022-10-29T19:41:03.274Z,26.40
2022-10-29T19:43:30.439Z,25.58
2022-10-29T19:45:57.699Z,25.13
2022-10-29T19:48:25.397Z,24.85
2022-10-29T19:50:56.583Z,23.88
2022-10-29T19:53:24.266Z,22.08
2022-10-29T19:55:51.571Z,25.30
2022-10-29T19:58:19.275Z,22.67
2022-10-29T20:00:45.980Z,25.25
2022-10-29T20:03:13.707Z,25.85
2022-10-29T20:05:41.521Z,23.30
2022-10-29T20:08:11.508Z,21.63
2022-10-29T20:10:41.433Z,22.25
2022-10-29T20:13:08.045Z,22.55
2022-10-29T20:15:34.607Z,25.50
2022-10-29T20:18:01.310Z,24.05
2022-10-29T20:20:27.961Z,26.65
2022-10-29T20:22:55.059Z,24.55
2022-10-29T20:25:24.000Z,24.00
2022-10-29T20:27:50.961Z,25.08
2022-10-29T20:30:17.876Z,23.25
2022-10-29T20:32:44.413Z,23.30
2022-10-29T20:35:10.948Z,25.70
2022-10-29T20:37:37.513Z,27.40
2022-10-29T20:40:05.282Z,26.85
2022-10-29T20:42:31.890Z,25.27
2022-10-29T20:44:58.400Z,22.58
2022-10-29T20:47:25.166Z,24.75
2022-10-29T20:49:51.692Z,24.65
2022-10-29T20:52:18.274Z,27.05
2022-10-29T20:54:44.785Z,25.05
2022-10-29T20:57:11.344Z,23.77
2022-10-29T20:59:37.947Z,25.48
2022-10-29T21:02:04.617Z,26.63
2022-10-29T21:04:31.262Z,26.45
2022-10-29T21:06:57.812Z,28.35
2022-10-29T21:09:24.430Z,26.88
2022-10-29T21:11:50.930Z,26.48
2022-10-29T21:14:17.473Z,29.88
2022-10-29T21:16:44.021Z,24.63
2022-10-29T21:19:10.785Z,28.77
2022-10-29T21:21:38.086Z,27.63
2022-10-29T21:24:04.749Z,25.52
2022-10-29T21:26:31.255Z,29.70
2022-10-29T21:28:58.225Z,28.70
2022-10-29T21:31:25.275Z,26.65
2022-10-29T21:33:53.038Z,25.63
2022-10-29T21:36:20.186Z,24.20
2022-10-29T21:38:46.934Z,27.17
2022-10-29T21:41:13.930Z,25.50
2022-10-29T21:43:40.519Z,27.38
2022-10-29T21:46:07.767Z,24.98
2022-10-29T21:48:34.715Z,25.52
2022-10-29T21:51:05.886Z,27.70
2022-10-29T21:53:32.803Z,29.25
2022-10-29T21:56:01.821Z,26.85
2022-10-29T21:58:28.771Z,25.65
2022-10-29T22:01:06.145Z,24.60
2022-10-29T22:03:34.169Z,26.98
2022-10-29T22:06:02.628Z,25.20
2022-10-29T22:08:29.206Z,26.83
2022-10-29T22:10:59.650Z,27.08
2022-10-29T22:13:30.879Z,28.48
2022-10-29T22:15:57.460Z,28.90
2022-10-29T22:18:24.918Z,25.98
2022-10-29T22:21:02.702Z,25.05
2022-10-29T22:23:29.228Z,29.20
2022-10-29T22:25:55.772Z,26.08
2022-10-29T22:28:22.260Z,29.67
2022-10-29T22:30:48.772Z,31.65
2022-10-29T22:33:15.707Z,27.77
2022-10-29T22:35:42.254Z,23.92
2022-10-29T22:38:08.766Z,27.30
2022-10-29T22:40:40.980Z,24.75
2022-10-29T22:43:07.586Z,33.65
2022-10-29T22:45:34.152Z,24.65
2022-10-29T22:48:00.662Z,27.27
2022-10-29T22:50:27.191Z,27.80
2022-10-29T22:52:53.737Z,30.25
2022-10-29T22:55:20.346Z,33.38
2022-10-29T22:57:46.905Z,30.42
2022-10-29T23:00:14.044Z,29.80
2022-10-29T23:02:40.609Z,30.85
2022-10-29T23:05:07.318Z,28.15
2022-10-29T23:07:33.895Z,28.20
2022-10-29T23:10:00.410Z,30.50
2022-10-29T23:12:26.959Z,41.20
2022-10-29T23:14:53.501Z,24.23
2022-10-29T23:17:19.996Z,22.58
2022-10-29T23:19:46.599Z,28.20
2022-10-29T23:24:39.601Z,25.70
2022-10-29T23:27:06.129Z,27.38
2022-10-29T23:29:32.649Z,26.20
2022-10-29T23:31:59.236Z,25.05
2022-10-29T23:34:25.807Z,25.77
2022-10-29T23:39:23.732Z,26.40
2022-10-29T23:41:50.287Z,26.42
2022-10-29T23:44:16.811Z,29.38
2022-10-29T23:46:43.346Z,24.95
2022-10-29T23:49:10.587Z,25.98
2022-10-29T23:51:37.106Z,23.77
2022-10-29T23:54:03.800Z,28.98
2022-10-29T23:56:30.330Z,34.05
2022-10-29T23:58:56.843Z,27.50
